»·PEaware :: N3021C KCMA-KBUR

N3021C :: KCMA-KBUR

FLIGHT INFORMATION

Flight Status: Arrived
Operator: Privately registered:
United States
More flights under this callsign
Pilot: Mark B. (9455)
Aircraft: CESSNA 172 SKYHAWK
(C172)
More flights by this aircraft type
Origin: KCMA Camarillo
United States
Destination: KBUR Bob Hope-Burbank
United States
More flights between these airports :: More routes between these airports
Route: +VTU054 TOAKS
File this flight plan on PilotEdge
Remarks:
Altitude:
(Current/Filed)
5,000ft
Speed:
(Current/Filed)
115kts
Departed: 30-Dec-17 09:47 PM
Arrived: 30-Dec-17 10:17 PM
Distance/Time
Traveled:
37nm/0:30
Distance/Time
To Go:
Arrived

Flight Plot

Page will automatically refresh every two minutes.


Map Options




Map Legend


Flown Route
Filed Route
Departure Airport
Arrival Airport
Navaid (VOR, NDB)
Fix

Horizontal Profiles

Position Reports

Time Latitude Longitude Heading Altitude Ground
Speed
30-Dec-17 21:30 34.209994 -119.094722 1 77ft 0kts
30-Dec-17 21:31 34.209994 -119.094722 1 77ft 0kts
30-Dec-17 21:32 34.209994 -119.094722 1 77ft 0kts
30-Dec-17 21:33 34.209994 -119.094722 1 77ft 0kts
30-Dec-17 21:34 34.209994 -119.094722 1 77ft 0kts
30-Dec-17 21:35 34.209994 -119.094722 1 77ft 0kts
30-Dec-17 21:36 34.209994 -119.094722 1 77ft 0kts
30-Dec-17 21:37 34.209994 -119.094722 1 77ft 0kts
30-Dec-17 21:38 34.209994 -119.094722 1 77ft 0kts
30-Dec-17 21:39 34.209994 -119.094722 1 77ft 0kts
30-Dec-17 21:40 34.209994 -119.094722 1 77ft 0kts
30-Dec-17 21:41 34.209994 -119.094722 1 77ft 0kts
30-Dec-17 21:42 34.209994 -119.094722 1 77ft 0kts
30-Dec-17 21:43 34.209994 -119.094722 1 77ft 0kts
30-Dec-17 21:44 34.209994 -119.094722 1 77ft 0kts
30-Dec-17 21:45 34.209994 -119.094722 1 77ft 0kts
30-Dec-17 21:46 34.209994 -119.094722 1 77ft 0kts
30-Dec-17 21:47 34.209994 -119.094722 1 77ft 0kts
30-Dec-17 21:48 34.210921 -119.093802 83 79ft 10kts
30-Dec-17 21:49 34.210858 -119.088067 89 80ft 21kts
30-Dec-17 21:50 34.211748 -119.083729 358 81ft 13kts
30-Dec-17 21:51 34.212577 -119.083732 0 81ft 0kts
30-Dec-17 21:52 34.213581 -119.083874 297 81ft 12kts
30-Dec-17 21:53 34.215216 -119.104944 284 830ft 72kts
30-Dec-17 21:54 34.221423 -119.128252 288 1818ft 74kts
30-Dec-17 21:55 34.227567 -119.152055 283 2767ft 75kts
30-Dec-17 21:56 34.233529 -119.176340 288 3658ft 77kts
30-Dec-17 21:57 34.240355 -119.200648 278 4515ft 77kts
30-Dec-17 21:58 34.252002 -119.207707 83 5083ft 84kts
30-Dec-17 21:59 34.245116 -119.175175 95 4962ft 108kts
30-Dec-17 22:00 34.241189 -119.139688 97 4951ft 103kts
30-Dec-17 22:01 34.238454 -119.105061 89 4974ft 104kts
30-Dec-17 22:02 34.236761 -119.070005 99 4988ft 104kts
30-Dec-17 22:03 34.233759 -119.035148 94 5002ft 104kts
30-Dec-17 22:04 34.230092 -119.000273 100 5009ft 104kts
30-Dec-17 22:05 34.227356 -118.965431 98 5017ft 104kts
30-Dec-17 22:06 34.221730 -118.931096 94 5026ft 104kts
30-Dec-17 22:07 34.220891 -118.896328 87 5038ft 104kts
30-Dec-17 22:08 34.220338 -118.861884 91 5045ft 105kts
30-Dec-17 22:09 34.218210 -118.826519 111 4978ft 107kts
30-Dec-17 22:10 34.207281 -118.793710 117 4972ft 104kts
30-Dec-17 22:11 34.201717 -118.759198 89 4916ft 106kts
30-Dec-17 22:12 34.201746 -118.723059 92 4702ft 111kts
30-Dec-17 22:13 34.200223 -118.685800 89 4141ft 111kts
30-Dec-17 22:14 34.201777 -118.649931 85 3983ft 107kts
30-Dec-17 22:15 34.203135 -118.614438 92 3938ft 109kts
30-Dec-17 22:16 34.200762 -118.578871 96 3666ft 115kts
30-Dec-17 22:17 34.198470 -118.540016 92 3061ft 119kts
30-Dec-17 22:18 34.198196 -118.501770 90 2830ft 114kts
30-Dec-17 22:19 34.198568 -118.464253 90 2338ft 111kts
30-Dec-17 22:20 34.198948 -118.426779 94 1710ft 110kts
30-Dec-17 22:21 34.198380 -118.392893 93 1196ft 94kts
30-Dec-17 22:22 34.197875 -118.363633 91 788ft 53kts
30-Dec-17 22:23 34.198552 -118.357950 356 781ft 0kts

Navigation Log

Ident Type
Flight plan parsing failed, navigation log unavailable